sensor_id;sensor_type;location;lat;lon;timestamp;temperature;humidity
4813;DHT22;2420;51.202;8.698;2022-08-19T00:01:09;19.40;1.00
4813;DHT22;2420;51.202;8.698;2022-08-19T00:03:35;19.40;1.00
4813;DHT22;2420;51.202;8.698;2022-08-19T00:06:01;19.40;1.00
4813;DHT22;2420;51.202;8.698;2022-08-19T00:08:26;19.30;1.00
4813;DHT22;2420;51.202;8.698;2022-08-19T00:10:52;19.30;1.00
4813;DHT22;2420;51.202;8.698;2022-08-19T00:13:17;19.30;1.00
4813;DHT22;2420;51.202;8.698;2022-08-19T00:15:43;19.30;1.00
4813;DHT22;2420;51.202;8.698;2022-08-19T00:18:10;19.30;1.00
4813;DHT22;2420;51.202;8.698;2022-08-19T00:20:35;19.30;1.00
4813;DHT22;2420;51.202;8.698;2022-08-19T00:23:03;19.30;1.00
4813;DHT22;2420;51.202;8.698;2022-08-19T00:25:29;19.30;1.00
4813;DHT22;2420;51.202;8.698;2022-08-19T00:27:54;19.20;1.00
4813;DHT22;2420;51.202;8.698;2022-08-19T00:30:20;19.30;1.00
4813;DHT22;2420;51.202;8.698;2022-08-19T00:32:46;19.30;1.00
4813;DHT22;2420;51.202;8.698;2022-08-19T00:35:12;19.30;1.00
4813;DHT22;2420;51.202;8.698;2022-08-19T00:37:38;19.30;1.00
4813;DHT22;2420;51.202;8.698;2022-08-19T00:40:06;19.30;1.00
4813;DHT22;2420;51.202;8.698;2022-08-19T00:42:32;19.30;1.00
4813;DHT22;2420;51.202;8.698;2022-08-19T00:44:58;19.30;1.00
4813;DHT22;2420;51.202;8.698;2022-08-19T00:47:23;19.30;1.00
4813;DHT22;2420;51.202;8.698;2022-08-19T00:49:53;19.20;1.00
4813;DHT22;2420;51.202;8.698;2022-08-19T00:52:33;19.20;1.00
4813;DHT22;2420;51.202;8.698;2022-08-19T00:55:00;19.20;1.00
4813;DHT22;2420;51.202;8.698;2022-08-19T00:57:35;19.20;1.00
4813;DHT22;2420;51.202;8.698;2022-08-19T01:00:06;19.20;1.00
4813;DHT22;2420;51.202;8.698;2022-08-19T01:02:32;19.20;1.00
4813;DHT22;2420;51.202;8.698;2022-08-19T01:05:00;19.20;1.00
4813;DHT22;2420;51.202;8.698;2022-08-19T01:07:26;19.20;1.00
4813;DHT22;2420;51.202;8.698;2022-08-19T01:09:52;19.20;1.00
4813;DHT22;2420;51.202;8.698;2022-08-19T01:12:18;19.20;1.00
4813;DHT22;2420;51.202;8.698;2022-08-19T01:14:45;19.10;1.00
4813;DHT22;2420;51.202;8.698;2022-08-19T01:17:11;19.10;1.00
4813;DHT22;2420;51.202;8.698;2022-08-19T01:19:40;19.10;1.00
4813;DHT22;2420;51.202;8.698;2022-08-19T01:22:34;19.10;1.00
4813;DHT22;2420;51.202;8.698;2022-08-19T01:24:56;19.10;1.00
4813;DHT22;2420;51.202;8.698;2022-08-19T01:27:22;19.10;1.00
4813;DHT22;2420;51.202;8.698;2022-08-19T01:29:47;19.00;1.00
4813;DHT22;2420;51.202;8.698;2022-08-19T01:32:15;19.00;1.00
4813;DHT22;2420;51.202;8.698;2022-08-19T01:34:42;19.00;1.00
4813;DHT22;2420;51.202;8.698;2022-08-19T01:37:11;19.00;1.00
4813;DHT22;2420;51.202;8.698;2022-08-19T01:39:38;18.90;1.00
4813;DHT22;2420;51.202;8.698;2022-08-19T01:42:05;18.90;1.00
4813;DHT22;2420;51.202;8.698;2022-08-19T01:44:33;18.90;1.00
4813;DHT22;2420;51.202;8.698;2022-08-19T01:46:58;18.90;1.00
4813;DHT22;2420;51.202;8.698;2022-08-19T01:49:25;18.90;1.00
4813;DHT22;2420;51.202;8.698;2022-08-19T01:51:52;18.90;1.00
4813;DHT22;2420;51.202;8.698;2022-08-19T01:54:20;18.90;1.00
4813;DHT22;2420;51.202;8.698;2022-08-19T01:56:46;18.90;1.00
4813;DHT22;2420;51.202;8.698;2022-08-19T01:59:16;18.90;1.00
4813;DHT22;2420;51.202;8.698;2022-08-19T02:01:42;18.80;1.00
4813;DHT22;2420;51.202;8.698;2022-08-19T02:04:08;18.80;1.00
4813;DHT22;2420;51.202;8.698;2022-08-19T02:06:34;18.80;1.00
4813;DHT22;2420;51.202;8.698;2022-08-19T02:09:00;18.80;1.00
4813;DHT22;2420;51.202;8.698;2022-08-19T02:11:29;18.80;1.00
4813;DHT22;2420;51.202;8.698;2022-08-19T02:13:57;18.70;1.00
4813;DHT22;2420;51.202;8.698;2022-08-19T02:16:23;18.70;1.00
4813;DHT22;2420;51.202;8.698;2022-08-19T02:18:49;18.70;1.00
4813;DHT22;2420;51.202;8.698;2022-08-19T02:21:19;18.70;1.00
4813;DHT22;2420;51.202;8.698;2022-08-19T02:23:45;18.60;1.00
4813;DHT22;2420;51.202;8.698;2022-08-19T02:26:11;18.60;1.00
4813;DHT22;2420;51.202;8.698;2022-08-19T02:28:38;18.60;1.00
4813;DHT22;2420;51.202;8.698;2022-08-19T02:31:08;18.50;1.00
4813;DHT22;2420;51.202;8.698;2022-08-19T02:33:34;18.50;1.00
4813;DHT22;2420;51.202;8.698;2022-08-19T02:36:03;18.50;1.00
4813;DHT22;2420;51.202;8.698;2022-08-19T02:38:29;18.50;1.00
4813;DHT22;2420;51.202;8.698;2022-08-19T02:40:58;18.40;1.00
4813;DHT22;2420;51.202;8.698;2022-08-19T02:43:25;18.30;1.00
4813;DHT22;2420;51.202;8.698;2022-08-19T02:45:51;18.30;1.00
4813;DHT22;2420;51.202;8.698;2022-08-19T02:48:19;18.20;1.00
4813;DHT22;2420;51.202;8.698;2022-08-19T02:50:45;18.20;1.00
4813;DHT22;2420;51.202;8.698;2022-08-19T02:53:11;18.20;1.00
4813;DHT22;2420;51.202;8.698;2022-08-19T02:55:46;18.10;1.00
4813;DHT22;2420;51.202;8.698;2022-08-19T02:58:12;18.10;1.00
4813;DHT22;2420;51.202;8.698;2022-08-19T03:00:47;18.00;1.00
4813;DHT22;2420;51.202;8.698;2022-08-19T03:03:14;18.00;1.00
4813;DHT22;2420;51.202;8.698;2022-08-19T03:05:40;17.90;1.00
4813;DHT22;2420;51.202;8.698;2022-08-19T03:08:05;17.90;1.00
4813;DHT22;2420;51.202;8.698;2022-08-19T03:10:32;17.80;1.00
4813;DHT22;2420;51.202;8.698;2022-08-19T03:12:57;17.70;1.00
4813;DHT22;2420;51.202;8.698;2022-08-19T03:15:23;17.70;1.00
4813;DHT22;2420;51.202;8.698;2022-08-19T03:17:49;17.70;1.00
4813;DHT22;2420;51.202;8.698;2022-08-19T03:20:14;17.70;1.00
4813;DHT22;2420;51.202;8.698;2022-08-19T03:22:40;17.60;1.00
4813;DHT22;2420;51.202;8.698;2022-08-19T03:25:06;17.50;1.00
4813;DHT22;2420;51.202;8.698;2022-08-19T03:27:31;17.50;1.00
4813;DHT22;2420;51.202;8.698;2022-08-19T03:29:57;17.50;1.00
4813;DHT22;2420;51.202;8.698;2022-08-19T03:32:22;17.40;1.00
4813;DHT22;2420;51.202;8.698;2022-08-19T03:34:48;17.40;1.00
4813;DHT22;2420;51.202;8.698;2022-08-19T03:37:14;17.40;1.00
4813;DHT22;2420;51.202;8.698;2022-08-19T03:39:41;17.40;1.00
4813;DHT22;2420;51.202;8.698;2022-08-19T03:42:08;17.30;1.00
4813;DHT22;2420;51.202;8.698;2022-08-19T03:44:34;17.40;1.00
4813;DHT22;2420;51.202;8.698;2022-08-19T03:47:01;17.40;1.00
4813;DHT22;2420;51.202;8.698;2022-08-19T03:49:30;17.40;1.00
4813;DHT22;2420;51.202;8.698;2022-08-19T03:51:57;17.50;1.00
4813;DHT22;2420;51.202;8.698;2022-08-19T03:54:24;17.50;1.00
4813;DHT22;2420;51.202;8.698;2022-08-19T03:56:51;17.50;1.00
4813;DHT22;2420;51.202;8.698;2022-08-19T03:59:23;17.50;1.00
4813;DHT22;2420;51.202;8.698;2022-08-19T04:01:52;17.50;1.00
4813;DHT22;2420;51.202;8.698;2022-08-19T04:04:18;17.50;1.00
4813;DHT22;2420;51.202;8.698;2022-08-19T04:06:44;17.50;1.00
4813;DHT22;2420;51.202;8.698;2022-08-19T04:09:12;17.40;1.00
4813;DHT22;2420;51.202;8.698;2022-08-19T04:11:58;17.40;1.00
4813;DHT22;2420;51.202;8.698;2022-08-19T04:14:26;17.30;1.00
4813;DHT22;2420;51.202;8.698;2022-08-19T04:16:55;17.30;1.00
4813;DHT22;2420;51.202;8.698;2022-08-19T04:19:20;17.20;1.00
4813;DHT22;2420;51.202;8.698;2022-08-19T04:21:48;17.20;1.00
4813;DHT22;2420;51.202;8.698;2022-08-19T04:24:15;17.20;1.00
4813;DHT22;2420;51.202;8.698;2022-08-19T04:26:41;17.30;1.00
4813;DHT22;2420;51.202;8.698;2022-08-19T04:29:09;17.20;1.00
4813;DHT22;2420;51.202;8.698;2022-08-19T04:31:35;17.10;1.00
4813;DHT22;2420;51.202;8.698;2022-08-19T04:34:06;17.10;1.00
4813;DHT22;2420;51.202;8.698;2022-08-19T04:36:36;17.00;1.00
4813;DHT22;2420;51.202;8.698;2022-08-19T04:39:06;17.00;1.00
4813;DHT22;2420;51.202;8.698;2022-08-19T04:41:33;17.00;1.00
4813;DHT22;2420;51.202;8.698;2022-08-19T04:44:17;17.00;1.00
4813;DHT22;2420;51.202;8.698;2022-08-19T04:46:47;17.00;1.00
4813;DHT22;2420;51.202;8.698;2022-08-19T04:49:14;17.00;1.00
4813;DHT22;2420;51.202;8.698;2022-08-19T04:51:43;17.00;1.00
4813;DHT22;2420;51.202;8.698;2022-08-19T04:54:09;17.00;1.00
4813;DHT22;2420;51.202;8.698;2022-08-19T04:56:35;17.00;1.00
4813;DHT22;2420;51.202;8.698;2022-08-19T04:59:01;17.00;1.00
4813;DHT22;2420;51.202;8.698;2022-08-19T05:01:32;16.90;1.00
4813;DHT22;2420;51.202;8.698;2022-08-19T05:03:59;16.90;1.00
4813;DHT22;2420;51.202;8.698;2022-08-19T05:06:26;16.90;1.00
4813;DHT22;2420;51.202;8.698;2022-08-19T05:08:51;16.90;1.00
4813;DHT22;2420;51.202;8.698;2022-08-19T05:11:26;17.00;1.00
4813;DHT22;2420;51.202;8.698;2022-08-19T05:13:51;17.00;1.00
4813;DHT22;2420;51.202;8.698;2022-08-19T05:16:19;17.00;1.00
4813;DHT22;2420;51.202;8.698;2022-08-19T05:18:45;17.00;1.00
4813;DHT22;2420;51.202;8.698;2022-08-19T05:21:30;17.00;1.00
4813;DHT22;2420;51.202;8.698;2022-08-19T05:24:16;17.10;1.00
4813;DHT22;2420;51.202;8.698;2022-08-19T05:26:44;17.10;1.00
4813;DHT22;2420;51.202;8.698;2022-08-19T05:29:12;17.10;1.00
4813;DHT22;2420;51.202;8.698;2022-08-19T05:31:38;17.20;1.00
4813;DHT22;2420;51.202;8.698;2022-08-19T05:34:05;17.20;1.00
4813;DHT22;2420;51.202;8.698;2022-08-19T05:36:35;17.30;1.00
4813;DHT22;2420;51.202;8.698;2022-08-19T05:39:03;17.30;1.00
4813;DHT22;2420;51.202;8.698;2022-08-19T05:41:29;17.40;1.00
4813;DHT22;2420;51.202;8.698;2022-08-19T05:44:02;17.40;1.00
4813;DHT22;2420;51.202;8.698;2022-08-19T05:46:28;17.50;1.00
4813;DHT22;2420;51.202;8.698;2022-08-19T05:48:54;17.60;1.00
4813;DHT22;2420;51.202;8.698;2022-08-19T05:51:22;17.60;1.00
4813;DHT22;2420;51.202;8.698;2022-08-19T05:53:48;17.60;1.00
4813;DHT22;2420;51.202;8.698;2022-08-19T05:56:15;17.70;1.00
4813;DHT22;2420;51.202;8.698;2022-08-19T05:58:42;17.70;1.00
4813;DHT22;2420;51.202;8.698;2022-08-19T06:01:14;17.70;1.00
4813;DHT22;2420;51.202;8.698;2022-08-19T06:03:40;17.80;1.00
4813;DHT22;2420;51.202;8.698;2022-08-19T06:06:07;17.90;1.00
4813;DHT22;2420;51.202;8.698;2022-08-19T06:08:34;17.90;1.00
4813;DHT22;2420;51.202;8.698;2022-08-19T06:11:18;18.00;1.00
4813;DHT22;2420;51.202;8.698;2022-08-19T06:13:45;18.10;1.00
4813;DHT22;2420;51.202;8.698;2022-08-19T06:16:13;18.10;1.00
4813;DHT22;2420;51.202;8.698;2022-08-19T06:18:44;18.20;1.00
4813;DHT22;2420;51.202;8.698;2022-08-19T06:21:10;18.40;1.00
4813;DHT22;2420;51.202;8.698;2022-08-19T06:23:35;18.50;1.00
4813;DHT22;2420;51.202;8.698;2022-08-19T06:26:01;18.70;1.00
4813;DHT22;2420;51.202;8.698;2022-08-19T06:28:26;18.80;1.00
4813;DHT22;2420;51.202;8.698;2022-08-19T06:30:52;18.90;1.00
4813;DHT22;2420;51.202;8.698;2022-08-19T06:33:18;19.00;1.00
4813;DHT22;2420;51.202;8.698;2022-08-19T06:35:43;19.10;1.00
4813;DHT22;2420;51.202;8.698;2022-08-19T06:38:09;19.20;1.00
4813;DHT22;2420;51.202;8.698;2022-08-19T06:40:35;19.30;1.00
4813;DHT22;2420;51.202;8.698;2022-08-19T06:43:01;19.40;1.00
4813;DHT22;2420;51.202;8.698;2022-08-19T06:45:27;19.50;1.00
4813;DHT22;2420;51.202;8.698;2022-08-19T06:47:53;19.60;1.00
4813;DHT22;2420;51.202;8.698;2022-08-19T06:50:22;19.70;1.00
4813;DHT22;2420;51.202;8.698;2022-08-19T06:52:48;19.80;1.00
4813;DHT22;2420;51.202;8.698;2022-08-19T06:55:14;20.10;1.00
4813;DHT22;2420;51.202;8.698;2022-08-19T06:57:41;20.10;1.00
4813;DHT22;2420;51.202;8.698;2022-08-19T07:00:08;20.20;1.00
4813;DHT22;2420;51.202;8.698;2022-08-19T07:02:40;20.30;1.00
4813;DHT22;2420;51.202;8.698;2022-08-19T07:05:06;20.40;1.00
4813;DHT22;2420;51.202;8.698;2022-08-19T07:07:32;20.60;1.00
4813;DHT22;2420;51.202;8.698;2022-08-19T07:09:58;20.70;1.00
4813;DHT22;2420;51.202;8.698;2022-08-19T07:12:23;20.80;1.00
4813;DHT22;2420;51.202;8.698;2022-08-19T07:14:49;20.90;1.00
4813;DHT22;2420;51.202;8.698;2022-08-19T07:17:14;21.00;1.00
4813;DHT22;2420;51.202;8.698;2022-08-19T07:19:40;21.10;1.00
4813;DHT22;2420;51.202;8.698;2022-08-19T07:22:08;21.10;1.00
4813;DHT22;2420;51.202;8.698;2022-08-19T07:24:35;21.10;1.00
4813;DHT22;2420;51.202;8.698;2022-08-19T07:27:03;21.20;1.00
4813;DHT22;2420;51.202;8.698;2022-08-19T07:29:31;21.30;1.00
4813;DHT22;2420;51.202;8.698;2022-08-19T07:31:58;21.50;1.00
4813;DHT22;2420;51.202;8.698;2022-08-19T07:34:25;21.60;1.00
4813;DHT22;2420;51.202;8.698;2022-08-19T07:36:51;21.60;1.00
4813;DHT22;2420;51.202;8.698;2022-08-19T07:39:20;21.70;1.00
4813;DHT22;2420;51.202;8.698;2022-08-19T07:41:47;21.70;1.00
4813;DHT22;2420;51.202;8.698;2022-08-19T07:44:14;21.70;1.00
4813;DHT22;2420;51.202;8.698;2022-08-19T07:46:42;21.90;1.00
4813;DHT22;2420;51.202;8.698;2022-08-19T07:49:09;21.90;1.00
4813;DHT22;2420;51.202;8.698;2022-08-19T07:51:45;22.10;1.00
4813;DHT22;2420;51.202;8.698;2022-08-19T07:54:11;22.20;1.00
4813;DHT22;2420;51.202;8.698;2022-08-19T07:56:37;22.40;1.00
4813;DHT22;2420;51.202;8.698;2022-08-19T07:59:03;22.50;1.00
4813;DHT22;2420;51.202;8.698;2022-08-19T08:01:28;22.60;1.00
4813;DHT22;2420;51.202;8.698;2022-08-19T08:03:56;22.60;1.00
4813;DHT22;2420;51.202;8.698;2022-08-19T08:06:41;22.60;1.00
4813;DHT22;2420;51.202;8.698;2022-08-19T08:09:34;22.70;1.00
4813;DHT22;2420;51.202;8.698;2022-08-19T08:12:09;22.90;1.00
4813;DHT22;2420;51.202;8.698;2022-08-19T08:15:04;23.20;1.00
4813;DHT22;2420;51.202;8.698;2022-08-19T08:17:30;23.30;1.00
4813;DHT22;2420;51.202;8.698;2022-08-19T08:19:56;23.50;1.00
4813;DHT22;2420;51.202;8.698;2022-08-19T08:22:23;23.40;1.00
4813;DHT22;2420;51.202;8.698;2022-08-19T08:25:14;23.30;1.00
4813;DHT22;2420;51.202;8.698;2022-08-19T08:27:43;23.20;1.00
4813;DHT22;2420;51.202;8.698;2022-08-19T08:30:10;23.20;1.00
4813;DHT22;2420;51.202;8.698;2022-08-19T08:32:37;23.00;1.00
4813;DHT22;2420;51.202;8.698;2022-08-19T08:35:10;22.90;1.00
4813;DHT22;2420;51.202;8.698;2022-08-19T08:37:36;22.80;1.00
4813;DHT22;2420;51.202;8.698;2022-08-19T08:40:21;22.80;1.00
4813;DHT22;2420;51.202;8.698;2022-08-19T08:43:13;22.80;1.00
4813;DHT22;2420;51.202;8.698;2022-08-19T08:45:49;22.80;1.00
4813;DHT22;2420;51.202;8.698;2022-08-19T08:48:30;23.00;1.00
4813;DHT22;2420;51.202;8.698;2022-08-19T08:50:58;23.40;1.00
4813;DHT22;2420;51.202;8.698;2022-08-19T08:53:25;23.50;1.00
4813;DHT22;2420;51.202;8.698;2022-08-19T08:55:51;23.60;1.00
4813;DHT22;2420;51.202;8.698;2022-08-19T08:58:24;23.70;1.00
4813;DHT22;2420;51.202;8.698;2022-08-19T09:00:50;23.90;1.00
4813;DHT22;2420;51.202;8.698;2022-08-19T09:03:22;24.30;1.00
4813;DHT22;2420;51.202;8.698;2022-08-19T09:06:14;24.30;1.00
4813;DHT22;2420;51.202;8.698;2022-08-19T09:09:10;24.10;1.00
4813;DHT22;2420;51.202;8.698;2022-08-19T09:11:56;24.20;1.00
4813;DHT22;2420;51.202;8.698;2022-08-19T09:14:57;24.30;1.00
4813;DHT22;2420;51.202;8.698;2022-08-19T09:17:24;24.10;1.00
4813;DHT22;2420;51.202;8.698;2022-08-19T09:20:00;24.10;1.00
4813;DHT22;2420;51.202;8.698;2022-08-19T09:22:30;23.90;1.00
4813;DHT22;2420;51.202;8.698;2022-08-19T09:24:55;23.80;1.00
4813;DHT22;2420;51.202;8.698;2022-08-19T09:27:22;23.90;1.00
4813;DHT22;2420;51.202;8.698;2022-08-19T09:29:49;24.00;1.00
4813;DHT22;2420;51.202;8.698;2022-08-19T09:32:15;24.20;1.00
4813;DHT22;2420;51.202;8.698;2022-08-19T09:34:42;24.10;1.00
4813;DHT22;2420;51.202;8.698;2022-08-19T09:37:08;24.10;1.00
4813;DHT22;2420;51.202;8.698;2022-08-19T09:39:34;24.00;1.00
4813;DHT22;2420;51.202;8.698;2022-08-19T09:41:59;24.10;1.00
4813;DHT22;2420;51.202;8.698;2022-08-19T09:44:25;24.00;1.00
4813;DHT22;2420;51.202;8.698;2022-08-19T09:46:50;23.90;1.00
4813;DHT22;2420;51.202;8.698;2022-08-19T09:49:18;23.90;1.00
4813;DHT22;2420;51.202;8.698;2022-08-19T09:51:44;24.00;1.00
4813;DHT22;2420;51.202;8.698;2022-08-19T09:54:09;24.10;1.00
4813;DHT22;2420;51.202;8.698;2022-08-19T09:56:35;24.30;1.00
4813;DHT22;2420;51.202;8.698;2022-08-19T09:59:02;24.30;1.00
4813;DHT22;2420;51.202;8.698;2022-08-19T10:01:30;24.30;1.00
4813;DHT22;2420;51.202;8.698;2022-08-19T10:03:57;24.10;1.00
4813;DHT22;2420;51.202;8.698;2022-08-19T10:06:26;24.00;1.00
4813;DHT22;2420;51.202;8.698;2022-08-19T10:08:55;23.90;1.00
4813;DHT22;2420;51.202;8.698;2022-08-19T10:11:21;23.80;1.00
4813;DHT22;2420;51.202;8.698;2022-08-19T10:13:47;23.90;1.00
4813;DHT22;2420;51.202;8.698;2022-08-19T10:16:16;24.30;1.00
4813;DHT22;2420;51.202;8.698;2022-08-19T10:18:43;24.40;1.00
4813;DHT22;2420;51.202;8.698;2022-08-19T10:21:26;24.60;1.00
4813;DHT22;2420;51.202;8.698;2022-08-19T10:23:57;24.50;1.00
4813;DHT22;2420;51.202;8.698;2022-08-19T10:26:27;24.30;1.00
4813;DHT22;2420;51.202;8.698;2022-08-19T10:28:53;24.20;1.00
4813;DHT22;2420;51.202;8.698;2022-08-19T10:31:23;24.20;1.00
4813;DHT22;2420;51.202;8.698;2022-08-19T10:33:50;24.30;1.00
4813;DHT22;2420;51.202;8.698;2022-08-19T10:36:18;24.40;1.00
4813;DHT22;2420;51.202;8.698;2022-08-19T10:38:49;24.60;1.00
4813;DHT22;2420;51.202;8.698;2022-08-19T10:41:30;24.80;1.00
4813;DHT22;2420;51.202;8.698;2022-08-19T10:43:59;24.90;1.00
4813;DHT22;2420;51.202;8.698;2022-08-19T10:46:26;24.90;1.00
4813;DHT22;2420;51.202;8.698;2022-08-19T10:48:53;24.80;1.00
4813;DHT22;2420;51.202;8.698;2022-08-19T10:51:19;24.70;1.00
4813;DHT22;2420;51.202;8.698;2022-08-19T10:54:04;24.60;1.00
4813;DHT22;2420;51.202;8.698;2022-08-19T10:56:30;24.50;1.00
4813;DHT22;2420;51.202;8.698;2022-08-19T10:59:21;24.40;1.00
4813;DHT22;2420;51.202;8.698;2022-08-19T11:01:47;24.40;1.00
4813;DHT22;2420;51.202;8.698;2022-08-19T11:04:13;24.50;1.00
4813;DHT22;2420;51.202;8.698;2022-08-19T11:06:44;24.50;1.00
4813;DHT22;2420;51.202;8.698;2022-08-19T11:09:16;24.60;1.00
4813;DHT22;2420;51.202;8.698;2022-08-19T11:11:43;24.90;1.00
4813;DHT22;2420;51.202;8.698;2022-08-19T11:14:12;25.20;1.00
4813;DHT22;2420;51.202;8.698;2022-08-19T11:16:39;25.20;1.00
4813;DHT22;2420;51.202;8.698;2022-08-19T11:19:07;25.60;1.00
4813;DHT22;2420;51.202;8.698;2022-08-19T11:21:39;25.70;1.00
4813;DHT22;2420;51.202;8.698;2022-08-19T11:24:20;25.60;1.00
4813;DHT22;2420;51.202;8.698;2022-08-19T11:26:47;25.40;1.00
4813;DHT22;2420;51.202;8.698;2022-08-19T11:29:18;25.10;1.00
4813;DHT22;2420;51.202;8.698;2022-08-19T11:31:47;24.90;1.00
4813;DHT22;2420;51.202;8.698;2022-08-19T11:34:17;24.80;1.00
4813;DHT22;2420;51.202;8.698;2022-08-19T11:36:44;24.80;1.00
4813;DHT22;2420;51.202;8.698;2022-08-19T11:39:12;25.30;1.00
4813;DHT22;2420;51.202;8.698;2022-08-19T11:41:38;25.70;1.00
4813;DHT22;2420;51.202;8.698;2022-08-19T11:44:04;26.10;1.00
4813;DHT22;2420;51.202;8.698;2022-08-19T11:46:30;26.60;1.00
4813;DHT22;2420;51.202;8.698;2022-08-19T11:48:59;26.80;1.00
4813;DHT22;2420;51.202;8.698;2022-08-19T11:51:26;27.20;1.00
4813;DHT22;2420;51.202;8.698;2022-08-19T11:53:54;27.50;1.00
4813;DHT22;2420;51.202;8.698;2022-08-19T11:56:21;27.30;1.00
4813;DHT22;2420;51.202;8.698;2022-08-19T11:58:47;26.90;1.00
4813;DHT22;2420;51.202;8.698;2022-08-19T12:01:15;26.80;1.00
4813;DHT22;2420;51.202;8.698;2022-08-19T12:03:41;26.70;1.00
4813;DHT22;2420;51.202;8.698;2022-08-19T12:06:10;26.80;1.00
4813;DHT22;2420;51.202;8.698;2022-08-19T12:08:39;27.00;1.00
4813;DHT22;2420;51.202;8.698;2022-08-19T12:11:05;27.20;1.00
4813;DHT22;2420;51.202;8.698;2022-08-19T12:13:33;27.40;1.00
4813;DHT22;2420;51.202;8.698;2022-08-19T12:15:59;27.60;1.00
4813;DHT22;2420;51.202;8.698;2022-08-19T12:18:25;27.70;1.00
4813;DHT22;2420;51.202;8.698;2022-08-19T12:20:52;27.80;1.00
4813;DHT22;2420;51.202;8.698;2022-08-19T12:23:20;28.00;1.00
4813;DHT22;2420;51.202;8.698;2022-08-19T12:25:47;28.00;1.00
4813;DHT22;2420;51.202;8.698;2022-08-19T12:28:22;28.00;1.00
4813;DHT22;2420;51.202;8.698;2022-08-19T12:30:49;28.00;1.00
4813;DHT22;2420;51.202;8.698;2022-08-19T12:33:17;28.10;1.00
4813;DHT22;2420;51.202;8.698;2022-08-19T12:35:44;28.30;1.00
4813;DHT22;2420;51.202;8.698;2022-08-19T12:38:12;28.70;1.00
4813;DHT22;2420;51.202;8.698;2022-08-19T12:40:38;28.70;1.00
4813;DHT22;2420;51.202;8.698;2022-08-19T12:43:06;28.70;1.00
4813;DHT22;2420;51.202;8.698;2022-08-19T12:45:31;28.30;1.00
4813;DHT22;2420;51.202;8.698;2022-08-19T12:47:57;27.90;1.00
4813;DHT22;2420;51.202;8.698;2022-08-19T12:50:23;27.50;1.00
4813;DHT22;2420;51.202;8.698;2022-08-19T12:52:49;27.10;1.00
4813;DHT22;2420;51.202;8.698;2022-08-19T12:55:15;27.10;1.00
4813;DHT22;2420;51.202;8.698;2022-08-19T12:57:40;27.00;1.00
4813;DHT22;2420;51.202;8.698;2022-08-19T13:00:15;27.00;1.00
4813;DHT22;2420;51.202;8.698;2022-08-19T13:02:44;27.10;1.00
4813;DHT22;2420;51.202;8.698;2022-08-19T13:05:17;27.40;1.00
4813;DHT22;2420;51.202;8.698;2022-08-19T13:07:45;27.60;1.00
4813;DHT22;2420;51.202;8.698;2022-08-19T13:10:14;27.70;1.00
4813;DHT22;2420;51.202;8.698;2022-08-19T13:12:45;27.60;1.00
4813;DHT22;2420;51.202;8.698;2022-08-19T13:15:12;27.50;1.00
4813;DHT22;2420;51.202;8.698;2022-08-19T13:17:39;27.40;1.00
4813;DHT22;2420;51.202;8.698;2022-08-19T13:20:05;27.20;1.00
4813;DHT22;2420;51.202;8.698;2022-08-19T13:22:33;27.30;1.00
4813;DHT22;2420;51.202;8.698;2022-08-19T13:24:58;27.70;1.00
4813;DHT22;2420;51.202;8.698;2022-08-19T13:27:24;27.80;1.00
4813;DHT22;2420;51.202;8.698;2022-08-19T13:29:50;27.90;1.00
4813;DHT22;2420;51.202;8.698;2022-08-19T13:32:34;27.70;1.00
4813;DHT22;2420;51.202;8.698;2022-08-19T13:35:18;27.70;1.00
4813;DHT22;2420;51.202;8.698;2022-08-19T13:37:44;27.60;1.00
4813;DHT22;2420;51.202;8.698;2022-08-19T13:40:17;27.30;1.00
4813;DHT22;2420;51.202;8.698;2022-08-19T13:42:46;27.20;1.00
4813;DHT22;2420;51.202;8.698;2022-08-19T13:45:13;27.10;1.00
4813;DHT22;2420;51.202;8.698;2022-08-19T13:47:41;27.10;1.00
4813;DHT22;2420;51.202;8.698;2022-08-19T13:50:16;27.20;1.00
4813;DHT22;2420;51.202;8.698;2022-08-19T13:52:42;27.40;1.00
4813;DHT22;2420;51.202;8.698;2022-08-19T13:55:10;27.40;1.00
4813;DHT22;2420;51.202;8.698;2022-08-19T13:57:36;27.20;1.00
4813;DHT22;2420;51.202;8.698;2022-08-19T14:00:08;27.10;1.00
4813;DHT22;2420;51.202;8.698;2022-08-19T14:02:36;26.90;1.00
4813;DHT22;2420;51.202;8.698;2022-08-19T14:05:04;26.80;1.00
4813;DHT22;2420;51.202;8.698;2022-08-19T14:07:30;26.70;1.00
4813;DHT22;2420;51.202;8.698;2022-08-19T14:09:55;26.70;1.00
4813;DHT22;2420;51.202;8.698;2022-08-19T14:12:22;26.70;1.00
4813;DHT22;2420;51.202;8.698;2022-08-19T14:14:48;26.90;1.00
4813;DHT22;2420;51.202;8.698;2022-08-19T14:17:14;26.80;1.00
4813;DHT22;2420;51.202;8.698;2022-08-19T14:19:41;27.00;1.00
4813;DHT22;2420;51.202;8.698;2022-08-19T14:22:07;27.20;1.00
4813;DHT22;2420;51.202;8.698;2022-08-19T14:24:32;27.40;1.00
4813;DHT22;2420;51.202;8.698;2022-08-19T14:26:58;27.40;1.00
4813;DHT22;2420;51.202;8.698;2022-08-19T14:29:24;27.50;1.00
4813;DHT22;2420;51.202;8.698;2022-08-19T14:31:50;27.60;1.00
4813;DHT22;2420;51.202;8.698;2022-08-19T14:34:15;27.40;1.00
4813;DHT22;2420;51.202;8.698;2022-08-19T14:36:41;27.20;1.00
4813;DHT22;2420;51.202;8.698;2022-08-19T14:39:07;27.20;1.00
4813;DHT22;2420;51.202;8.698;2022-08-19T14:41:35;27.10;1.00
4813;DHT22;2420;51.202;8.698;2022-08-19T14:44:00;27.00;1.00
4813;DHT22;2420;51.202;8.698;2022-08-19T14:46:28;26.90;1.00
4813;DHT22;2420;51.202;8.698;2022-08-19T14:48:55;26.70;1.00
4813;DHT22;2420;51.202;8.698;2022-08-19T14:51:23;26.60;1.00
4813;DHT22;2420;51.202;8.698;2022-08-19T14:53:49;26.50;1.00
4813;DHT22;2420;51.202;8.698;2022-08-19T14:56:18;26.60;1.00
4813;DHT22;2420;51.202;8.698;2022-08-19T14:58:45;26.50;1.00
4813;DHT22;2420;51.202;8.698;2022-08-19T15:01:11;26.40;1.00
4813;DHT22;2420;51.202;8.698;2022-08-19T15:03:37;26.40;1.00
4813;DHT22;2420;51.202;8.698;2022-08-19T15:06:05;26.40;1.00
4813;DHT22;2420;51.202;8.698;2022-08-19T15:08:33;26.40;1.00
4813;DHT22;2420;51.202;8.698;2022-08-19T15:11:01;26.40;1.00
4813;DHT22;2420;51.202;8.698;2022-08-19T15:13:28;26.40;1.00
4813;DHT22;2420;51.202;8.698;2022-08-19T15:15:54;26.40;1.00
4813;DHT22;2420;51.202;8.698;2022-08-19T15:18:20;26.30;1.00
4813;DHT22;2420;51.202;8.698;2022-08-19T15:20:47;26.30;1.00
4813;DHT22;2420;51.202;8.698;2022-08-19T15:23:14;26.20;1.00
4813;DHT22;2420;51.202;8.698;2022-08-19T15:25:40;26.40;1.00
4813;DHT22;2420;51.202;8.698;2022-08-19T15:28:07;26.50;1.00
4813;DHT22;2420;51.202;8.698;2022-08-19T15:30:32;26.60;1.00
4813;DHT22;2420;51.202;8.698;2022-08-19T15:32:59;26.60;1.00
4813;DHT22;2420;51.202;8.698;2022-08-19T15:35:25;26.60;1.00
4813;DHT22;2420;51.202;8.698;2022-08-19T15:37:52;26.60;1.00
4813;DHT22;2420;51.202;8.698;2022-08-19T15:40:19;26.50;1.00
4813;DHT22;2420;51.202;8.698;2022-08-19T15:42:45;26.40;1.00
4813;DHT22;2420;51.202;8.698;2022-08-19T15:45:12;26.40;1.00
4813;DHT22;2420;51.202;8.698;2022-08-19T15:47:39;26.50;1.00
4813;DHT22;2420;51.202;8.698;2022-08-19T15:50:15;26.60;1.00
4813;DHT22;2420;51.202;8.698;2022-08-19T15:52:50;26.60;1.00
4813;DHT22;2420;51.202;8.698;2022-08-19T15:55:27;26.50;1.00
4813;DHT22;2420;51.202;8.698;2022-08-19T15:57:53;26.50;1.00
4813;DHT22;2420;51.202;8.698;2022-08-19T16:00:38;26.50;1.00
4813;DHT22;2420;51.202;8.698;2022-08-19T16:03:22;26.50;1.00
4813;DHT22;2420;51.202;8.698;2022-08-19T16:06:07;26.40;1.00
4813;DHT22;2420;51.202;8.698;2022-08-19T16:08:52;26.40;1.00
4813;DHT22;2420;51.202;8.698;2022-08-19T16:11:21;26.40;1.00
4813;DHT22;2420;51.202;8.698;2022-08-19T16:13:50;26.30;1.00
4813;DHT22;2420;51.202;8.698;2022-08-19T16:16:18;26.20;1.00
4813;DHT22;2420;51.202;8.698;2022-08-19T16:18:43;26.20;1.00
4813;DHT22;2420;51.202;8.698;2022-08-19T16:21:14;26.10;1.00
4813;DHT22;2420;51.202;8.698;2022-08-19T16:23:44;26.10;1.00
4813;DHT22;2420;51.202;8.698;2022-08-19T16:26:12;26.10;1.00